首页
METAR-TAF:

METAR-TAF

机场 :

拉梅齊亞泰爾梅, 意大利

纬度: 38-54N, 经度: 016-15E, 海拔: 15米

当前天气观测

该预报发布于38分钟前的10:50 UTC
风速6节,风向,在东北东转东南之间变化
温度 17°C
湿度 72%
气压 1020 hPa
能见度10公里或以上
多云层高于2500英尺

METAR: LICA 261050Z 09006KT 040V120 9999 BKN025 17/12 Q1020

时间: 12:28 (11:28 UTC)

预报

该预报发布于6小时和28分钟前的05:00 UTC
预报有效从26日的 06点(UTC)到 27日的 06点(UTC)
风速8节,风向东转东北
能见度10公里或以上
散云层高于2000英尺

TAF: LICA 260500Z 2606/2706 07008KT 9999 SCT020

超过4000个机场的气象观测和天气预报(METAR&TAF报告)。

可查询的气象台以黄色和红色小点在地图上表示。

将鼠标移到小点上方,可查看气象台名称。

然后点击查看天气观测和预报。

如需切换地图:点击带黑十字的绿色按钮放大地图;点击带横线的绿色按钮缩小地图;或者点击绿色箭头查看邻近地区的地图。


METAR-TAF: